Date,TemperatureHighF,TemperatureAvgF,TemperatureLowF,DewpointHighF,DewpointAvgF,DewpointLowF,HumidityHigh,HumidityAvg,HumidityLow,PressureMaxIn,PressureMinIn,WindSpeedMaxMPH,WindSpeedAvgMPH,GustSpeedMaxMPH,PrecipitationSumIn
2013-2-1,16,14,12,15,11,8,97,90,72,0.00,40.00,9,8,0,0.00
2013-2-2,20,14,-3,20,12,-6,100,91,75,0.00,40.00,7,4,0,0.00
2013-2-3,18,14,0,16,10,-3,94,85,75,0.00,40.00,9,4,0,0.00
2013-2-4,20,16,3,16,13,1,97,88,69,0.00,40.00,3,1,0,0.00
2013-2-5,28,17,0,28,15,-2,100,92,88,0.00,40.00,10,6,0,0.00
2013-2-6,31,23,14,21,18,13,97,81,64,0.00,40.00,7,2,0,0.03
2013-2-7,31,29,27,31,9,-100,104,77,73,0.00,40.00,6,3,0,0.01
2013-2-8,35,28,21,27,-12,-100,102,57,55,0.00,40.00,10,6,0,0.02
2013-2-9,30,15,-3,19,10,-6,91,78,64,0.00,40.00,4,2,0,0.03
2013-2-10,39,28,13,39,25,11,102,88,78,0.00,40.00,12,4,0,0.19
2013-2-11,43,36,31,41,32,25,100,85,76,0.00,40.00,18,14,0,0.01
2013-2-12,29,28,26,23,22,21,80,77,73,0.00,40.00,11,7,0,0.00
2013-2-13,35,29,22,30,25,22,99,87,79,0.00,40.00,8,4,0,0.00
2013-2-14,37,31,25,35,30,25,104,99,87,0.00,40.00,12,6,0,0.04
2013-2-15,26,23,21,25,18,15,96,81,64,0.00,40.00,9,5,0,0.00
2013-2-16,21,17,11,17,14,9,96,88,73,0.00,40.00,8,5,0,0.00
2013-2-17,22,10,-7,11,4,-11,91,78,62,0.00,40.00,6,2,0,0.00
2013-2-18,43,29,17,42,20,9,99,70,58,0.00,40.00,13,6,0,0.07
2013-2-19,41,25,16,40,24,14,100,96,93,0.00,40.00,14,12,0,0.01
2013-2-20,22,18,15,15,13,11,94,83,65,0.00,40.00,13,10,0,0.00
2013-2-21,27,22,20,17,16,13,81,74,65,0.00,40.00,8,5,0,0.00
2013-2-22,31,24,20,28,7,-100,102,82,76,0.00,40.00,7,5,0,0.00
2013-2-23,31,29,27,30,24,20,98,82,71,0.00,40.00,9,8,0,0.00
2013-2-24,35,30,22,26,24,20,93,77,63,0.00,40.00,7,4,0,0.00
2013-2-25,40,25,13,26,19,13,98,79,47,0.00,40.00,5,1,0,0.00
2013-2-26,33,30,27,31,5,-100,101,65,62,0.00,40.00,8,6,0,0.01
2013-2-27,36,33,31,35,-46,-100,104,40,96,0.00,40.00,5,3,0,0.19
2013-2-28,37,33,31,33,29,24,102,86,68,0.00,40.00,9,8,0,0.00